Ryde, Pennsylvania
Current Conditions -  °F | °C
As of 8:53 PM on Friday 21 Nov 2014 (Local Time) from KUNV Reporting Station
Clear Clear  
Wind Chill: 13°   Ceiling: Unl
Heat Index: 19°   Visibility: 10mi
Dew Point:   Wind: 5mph
Humidity: 63%   Direction: 230°SW
Pressure: 30.46"   Gusts: NA
Location:  40.5138°N, 77.7384°W
Report Text: KUNV 220153Z 23004KT 10SM SKC M07/M13 A3046
Loading
Personal Weather Stations






























Interactive Weather Map New forecast layout! Learn more

10-Day Weather Forecast

Advertisements
Track Severe Weather on mobile